Time;durP1;ratioP1;P1;durP2;ratioP2;P2;SDS_P1;SDS_P2;PMS_P1;PMS_P2;Temp;Humidity;BMP_temperature;BMP_pressure;BME280_temperature;BME280_humidity;BME280_pressure;Samples;Min_cycle;Max_cycle;Signal;HPM_P1;HPM_P2
2022/11/04 00:01:38;;;;;;;2.10;1.00;;;9.50;99.90;;;;;;5070641;28;20415;-65
2022/11/04 00:04:04;;;;;;;1.30;0.60;;;9.40;99.90;;;;;;5071698;28;20412;-64
2022/11/04 00:06:29;;;;;;;2.50;0.80;;;9.50;99.90;;;;;;5071683;28;20752;-64
2022/11/04 00:08:57;;;;;;;1.40;0.77;;;9.40;99.90;;;;;;5070952;28;20415;-64
2022/11/04 00:14:09;;;;;;;1.83;1.07;;;9.30;99.90;;;;;;5071304;28;20858;-64
2022/11/04 00:19:19;;;;;;;3.00;0.70;;;9.30;99.90;;;;;;5072169;28;20557;-65
2022/11/04 00:29:51;;;;;;;1.60;0.83;;;9.40;99.90;;;;;;5091494;28;20493;-65
2022/11/04 00:35:01;;;;;;;6.00;1.43;;;9.40;99.90;;;;;;5091499;28;20600;-65
2022/11/04 00:37:27;;;;;;;1.57;0.90;;;9.40;99.90;;;;;;5091202;28;20411;-65
2022/11/04 00:39:52;;;;;;;2.00;0.90;;;9.30;99.90;;;;;;5091485;28;20237;-65
2022/11/04 00:42:18;;;;;;;2.60;0.90;;;9.30;99.90;;;;;;5056224;28;20195;-65
2022/11/04 00:44:43;;;;;;;1.90;0.80;;;9.30;99.90;;;;;;5071049;28;20187;-65
2022/11/04 00:47:09;;;;;;;1.40;0.60;;;9.30;99.90;;;;;;5070835;28;20189;-65
2022/11/04 00:49:34;;;;;;;2.50;1.03;;;9.40;99.90;;;;;;5071626;28;20188;-65
2022/11/04 00:52:00;;;;;;;1.90;0.93;;;9.40;99.90;;;;;;5071233;28;20570;-65
2022/11/04 00:54:25;;;;;;;1.30;0.57;;;9.40;99.90;;;;;;5071747;28;20173;-65
2022/11/04 00:56:52;;;;;;;3.30;0.90;;;9.30;99.90;;;;;;5071544;28;20169;-65
2022/11/04 00:59:18;;;;;;;2.27;0.83;;;9.30;99.90;;;;;;5072028;28;20275;-64
2022/11/04 01:01:44;;;;;;;1.50;0.73;;;9.30;99.90;;;;;;5071275;28;20894;-64
2022/11/04 01:04:09;;;;;;;2.23;1.00;;;9.30;99.90;;;;;;5071594;28;20184;-65
2022/11/04 01:06:35;;;;;;;1.60;0.60;;;9.30;99.90;;;;;;5071769;28;20679;-64
2022/11/04 01:09:04;;;;;;;2.10;0.80;;;9.20;99.90;;;;;;5071720;28;20177;-65
2022/11/04 01:11:30;;;;;;;1.40;0.80;;;9.30;99.90;;;;;;5070672;28;20205;-65
2022/11/04 01:13:56;;;;;;;1.33;0.70;;;9.20;99.90;;;;;;5071316;28;20429;-65
2022/11/04 01:16:23;;;;;;;1.27;0.60;;;9.20;99.90;;;;;;5071420;28;20177;-64
2022/11/04 01:18:48;;;;;;;1.30;0.60;;;9.20;99.90;;;;;;5071778;28;20419;-64
2022/11/04 01:21:15;;;;;;;2.23;1.10;;;9.20;99.90;;;;;;5090977;28;20493;-64
2022/11/04 01:23:42;;;;;;;1.60;0.83;;;9.20;99.90;;;;;;5076882;28;20584;-64
2022/11/04 01:26:17;;;;;;;2.30;1.00;;;9.20;99.90;;;;;;5095405;28;20414;-64
2022/11/04 01:28:43;;;;;;;1.40;0.60;;;9.10;99.90;;;;;;5095405;28;20394;-64
2022/11/04 01:31:14;;;;;;;2.07;0.60;;;9.10;99.90;;;;;;5095323;28;20493;-64
2022/11/04 01:33:40;;;;;;;3.47;1.17;;;9.20;99.90;;;;;;5095164;28;20383;-64
2022/11/04 01:36:08;;;;;;;1.50;0.70;;;9.20;99.90;;;;;;5095494;28;20422;-65
2022/11/04 01:38:34;;;;;;;1.50;0.67;;;9.20;99.90;;;;;;5095042;28;20209;-64
2022/11/04 01:40:59;;;;;;;2.23;0.73;;;9.20;99.90;;;;;;5089951;28;20911;-64
2022/11/04 01:43:44;;;;;;;2.77;0.83;;;9.20;99.90;;;;;;5074280;28;20407;-64
2022/11/04 01:46:20;;;;;;;3.00;0.80;;;9.20;99.90;;;;;;5075160;28;20648;-64
2022/11/04 01:48:46;;;;;;;1.40;0.60;;;9.20;99.90;;;;;;5074849;28;20442;-65
2022/11/04 01:51:12;;;;;;;2.60;0.90;;;9.20;99.90;;;;;;5074795;28;20892;-65
2022/11/04 01:53:40;;;;;;;1.97;0.90;;;9.10;99.90;;;;;;5074451;28;20456;-65
2022/11/04 01:56:10;;;;;;;1.77;0.80;;;9.10;99.90;;;;;;5074721;28;20974;-65
2022/11/04 01:58:41;;;;;;;1.50;0.77;;;9.10;99.90;;;;;;5074420;28;20490;-65
2022/11/04 02:01:10;;;;;;;1.40;0.70;;;9.10;99.90;;;;;;5073942;28;20419;-64
2022/11/04 02:03:50;;;;;;;1.30;0.60;;;9.10;99.90;;;;;;5074053;28;20465;-65
2022/11/04 02:06:18;;;;;;;13.30;0.80;;;9.10;99.90;;;;;;5074652;28;20399;-64
2022/11/04 02:08:45;;;;;;;1.20;0.50;;;9.10;99.90;;;;;;5074388;28;20545;-65
2022/11/04 02:12:48;;;;;;;1.20;0.53;;;9.00;99.90;;;;;;5074311;28;20459;-64
2022/11/04 02:13:56;;;;;;;1.20;0.60;;;9.00;99.90;;;;;;5073890;28;20442;-65
2022/11/04 02:16:38;;;;;;;1.20;0.50;;;8.90;99.90;;;;;;5074131;28;20399;-64
2022/11/04 02:19:13;;;;;;;1.30;0.60;;;8.90;99.90;;;;;;5074145;28;20161;-64
2022/11/04 02:22:05;;;;;;;1.40;0.60;;;8.90;99.90;;;;;;5052579;28;20404;-67
2022/11/04 02:25:00;;;;;;;1.40;0.60;;;8.90;99.90;;;;;;5053974;28;20439;-65
2022/11/04 02:27:47;;;;;;;2.00;0.70;;;8.90;99.90;;;;;;5053573;28;20403;-64
2022/11/04 02:30:16;;;;;;;1.50;0.90;;;8.90;99.90;;;;;;5053657;28;20970;-65
2022/11/04 02:33:06;;;;;;;1.50;0.60;;;8.80;99.90;;;;;;5053735;28;20896;-65
2022/11/04 02:35:44;;;;;;;2.57;0.70;;;8.80;99.90;;;;;;5054279;28;20404;-64
2022/11/04 02:38:29;;;;;;;1.10;0.40;;;8.70;99.90;;;;;;5054205;28;20400;-64
2022/11/04 02:41:12;;;;;;;1.30;0.60;;;8.70;99.90;;;;;;5058760;28;20430;-64
2022/11/04 02:43:49;;;;;;;1.20;0.60;;;8.60;99.90;;;;;;5073412;28;20406;-64
2022/11/04 02:46:18;;;;;;;1.60;0.70;;;8.60;99.90;;;;;;5055999;28;20411;-64
2022/11/04 02:48:56;;;;;;;1.40;0.60;;;8.60;99.90;;;;;;5074096;28;20404;-64
2022/11/04 02:51:30;;;;;;;2.47;0.90;;;8.50;99.90;;;;;;5073514;28;20447;-66
2022/11/04 02:54:02;;;;;;;3.83;0.60;;;8.60;99.90;;;;;;5073943;28;20954;-65
2022/11/04 02:56:29;;;;;;;1.20;0.57;;;8.50;99.90;;;;;;5073830;28;20422;-65
2022/11/04 02:59:01;;;;;;;1.73;0.60;;;8.50;99.90;;;;;;5055493;28;20901;-64
2022/11/04 03:01:32;;;;;;;10.10;1.03;;;8.40;99.90;;;;;;5072941;28;20868;-64
2022/11/04 03:04:05;;;;;;;1.30;0.60;;;8.40;99.90;;;;;;5073449;28;20408;-64
2022/11/04 03:06:32;;;;;;;2.07;0.70;;;8.40;99.90;;;;;;5073538;28;20411;-64
2022/11/04 03:08:59;;;;;;;1.97;0.77;;;8.40;99.90;;;;;;5073401;28;20427;-64
2022/11/04 03:11:26;;;;;;;1.67;0.57;;;8.40;99.90;;;;;;5073127;28;20458;-64
2022/11/04 03:14:06;;;;;;;3.83;0.93;;;8.30;99.90;;;;;;5072941;28;20428;-64
2022/11/04 03:16:31;;;;;;;1.70;0.77;;;8.30;99.90;;;;;;5073593;28;20445;-64
2022/11/04 03:19:15;;;;;;;1.63;0.80;;;8.20;99.90;;;;;;5073438;28;20415;-64
2022/11/04 03:22:03;;;;;;;2.90;0.80;;;8.20;99.90;;;;;;5051579;28;20181;-64
2022/11/04 03:24:30;;;;;;;1.60;0.50;;;8.20;99.90;;;;;;5053326;28;20419;-64
2022/11/04 03:27:13;;;;;;;1.30;0.53;;;8.20;99.90;;;;;;5053227;28;21226;-64
2022/11/04 03:29:53;;;;;;;1.60;0.60;;;8.10;99.90;;;;;;5053250;28;20404;-64
2022/11/04 03:32:24;;;;;;;2.37;0.67;;;8.10;99.90;;;;;;5052982;28;20417;-64
2022/11/04 03:34:50;;;;;;;1.20;0.63;;;8.20;99.90;;;;;;5053870;28;20512;-64
2022/11/04 03:37:16;;;;;;;1.60;0.60;;;8.10;99.90;;;;;;5054482;28;20435;-64
2022/11/04 03:39:42;;;;;;;1.83;0.70;;;8.20;99.90;;;;;;5054385;28;20904;-65
2022/11/04 03:42:19;;;;;;;5.97;0.90;;;8.20;99.90;;;;;;5069668;28;20419;-65
2022/11/04 03:44:48;;;;;;;1.20;0.50;;;8.10;99.90;;;;;;5081906;28;20172;-64
2022/11/04 03:47:15;;;;;;;6.30;0.67;;;8.10;99.90;;;;;;5084349;28;20419;-65
2022/11/04 03:49:42;;;;;;;4.77;1.23;;;8.10;99.90;;;;;;5085596;28;20427;-64
2022/11/04 03:52:08;;;;;;;2.07;0.93;;;8.10;99.90;;;;;;5084947;28;20442;-64
2022/11/04 03:54:35;;;;;;;1.50;0.80;;;8.00;99.90;;;;;;5085565;28;20411;-65
2022/11/04 03:57:16;;;;;;;1.30;0.50;;;8.00;99.90;;;;;;5077335;28;20472;-65
2022/11/04 03:59:45;;;;;;;1.30;0.60;;;8.10;99.90;;;;;;5073379;28;20398;-65
2022/11/04 04:02:16;;;;;;;1.70;0.77;;;8.10;99.90;;;;;;5072409;28;21047;-65
2022/11/04 04:05:01;;;;;;;1.30;0.60;;;8.10;99.90;;;;;;5072579;28;20411;-65
2022/11/04 04:07:45;;;;;;;2.53;0.60;;;8.10;99.90;;;;;;5072356;28;20500;-65
2022/11/04 04:13:14;;;;;;;1.43;0.60;;;8.10;99.90;;;;;;5071430;28;20418;-65
2022/11/04 04:16:06;;;;;;;1.37;0.70;;;8.10;99.90;;;;;;5072094;28;20384;-65
2022/11/04 04:18:49;;;;;;;1.40;0.60;;;8.10;99.90;;;;;;5071920;28;20411;-65
2022/11/04 04:21:20;;;;;;;2.03;0.60;;;8.10;99.90;;;;;;5088041;28;20390;-65
2022/11/04 04:29:19;;;;;;;2.67;0.83;;;8.00;99.90;;;;;;5052072;28;20958;-65
2022/11/04 04:31:51;;;;;;;1.20;0.50;;;8.00;99.90;;;;;;5051292;28;20467;-65
2022/11/04 04:34:31;;;;;;;1.47;0.77;;;7.90;99.90;;;;;;5051597;28;20406;-65
2022/11/04 04:37:05;;;;;;;10.73;0.60;;;7.90;99.90;;;;;;5051465;28;20770;-64
2022/11/04 04:45:24;;;;;;;2.50;0.70;;;7.80;99.90;;;;;;5071826;28;20402;-64
2022/11/04 04:47:50;;;;;;;1.40;0.50;;;7.70;99.90;;;;;;5071837;28;20402;-65
2022/11/04 04:50:18;;;;;;;2.37;0.83;;;7.70;99.90;;;;;;5054318;28;20545;-65
2022/11/04 04:52:47;;;;;;;2.03;0.80;;;7.70;99.90;;;;;;5071196;28;20400;-64
2022/11/04 04:55:13;;;;;;;1.57;0.67;;;7.70;99.90;;;;;;5071137;28;20403;-65
2022/11/04 04:57:39;;;;;;;1.70;0.60;;;7.60;99.90;;;;;;5071354;28;20438;-65
2022/11/04 05:00:07;;;;;;;1.93;0.70;;;7.50;99.90;;;;;;5071639;28;20485;-65
2022/11/04 05:02:32;;;;;;;12.53;1.07;;;7.50;99.90;;;;;;5071020;28;20176;-64
2022/11/04 05:04:58;;;;;;;2.13;0.80;;;7.40;99.90;;;;;;5071541;28;20452;-65
2022/11/04 05:07:24;;;;;;;2.03;1.20;;;7.40;99.90;;;;;;5071468;28;20176;-67
2022/11/04 05:09:50;;;;;;;1.40;0.63;;;7.30;99.90;;;;;;5070859;28;20184;-65
2022/11/04 05:12:16;;;;;;;3.43;0.67;;;7.30;99.90;;;;;;5070425;28;20422;-65
2022/11/04 05:14:41;;;;;;;3.03;0.80;;;7.30;99.90;;;;;;5071350;28;20181;-65
2022/11/04 05:17:07;;;;;;;2.00;0.80;;;7.30;99.90;;;;;;5071277;28;20252;-65
2022/11/04 05:19:32;;;;;;;2.07;0.90;;;7.20;99.90;;;;;;5074182;28;20176;-65
2022/11/04 05:21:58;;;;;;;4.30;1.37;;;7.20;99.90;;;;;;5090362;28;20172;-65
2022/11/04 05:24:24;;;;;;;2.00;1.20;;;7.10;99.90;;;;;;5091563;28;20179;-64
2022/11/04 05:26:50;;;;;;;1.73;0.83;;;7.10;99.90;;;;;;5073611;28;20181;-65
2022/11/04 05:29:15;;;;;;;1.20;0.60;;;7.00;99.90;;;;;;5091380;28;20533;-65
2022/11/04 05:31:41;;;;;;;5.60;0.97;;;7.00;99.90;;;;;;5091356;28;20196;-65
2022/11/04 05:34:09;;;;;;;4.30;0.60;;;7.00;99.90;;;;;;5091510;28;20204;-65
2022/11/04 05:36:36;;;;;;;3.17;0.93;;;7.00;99.90;;;;;;5091467;28;20175;-65
2022/11/04 05:39:02;;;;;;;1.33;0.70;;;7.00;99.90;;;;;;5091401;28;20436;-64
2022/11/04 05:41:28;;;;;;;1.20;0.60;;;7.00;99.90;;;;;;5081733;28;20522;-65
2022/11/04 05:43:59;;;;;;;2.03;0.87;;;7.00;99.90;;;;;;5070922;28;20803;-65
2022/11/04 05:46:25;;;;;;;2.10;1.03;;;7.10;99.90;;;;;;5071141;28;20211;-64
2022/11/04 05:48:50;;;;;;;1.40;0.60;;;7.10;99.90;;;;;;5070964;28;20451;-64
2022/11/04 05:51:19;;;;;;;12.60;1.13;;;7.10;99.90;;;;;;5070835;28;20498;-64
2022/11/04 05:53:45;;;;;;;1.23;0.60;;;7.10;99.90;;;;;;5070512;28;20260;-64
2022/11/04 05:56:10;;;;;;;1.70;0.80;;;7.10;99.90;;;;;;5071092;28;20510;-64
2022/11/04 05:58:36;;;;;;;1.20;0.50;;;7.10;99.90;;;;;;5070479;28;20173;-63
2022/11/04 06:01:32;;;;;;;1.50;0.70;;;7.10;99.90;;;;;;5070895;28;20215;-63
2022/11/04 06:03:59;;;;;;;1.30;0.60;;;7.10;99.90;;;;;;5070581;28;20180;-64
2022/11/04 06:06:27;;;;;;;1.20;0.60;;;7.10;99.90;;;;;;5054416;28;20419;-64
2022/11/04 06:08:52;;;;;;;1.50;0.80;;;7.00;99.90;;;;;;5074289;28;20414;-64
2022/11/04 06:11:19;;;;;;;1.80;0.70;;;7.00;99.90;;;;;;5074245;28;20455;-63
2022/11/04 06:13:45;;;;;;;2.50;0.60;;;7.00;99.90;;;;;;5073737;28;20197;-64
2022/11/04 06:16:10;;;;;;;1.13;0.50;;;7.00;99.90;;;;;;5074314;28;20423;-64
2022/11/04 06:18:36;;;;;;;1.40;0.50;;;6.90;99.90;;;;;;5074261;28;20223;-64
2022/11/04 06:21:14;;;;;;;2.70;0.80;;;6.90;99.90;;;;;;5088718;28;20546;-64
2022/11/04 06:23:43;;;;;;;1.20;0.60;;;6.90;99.90;;;;;;5094281;28;20203;-64
2022/11/04 06:26:10;;;;;;;1.20;0.50;;;6.80;99.90;;;;;;5094488;28;20402;-64
2022/11/04 06:28:36;;;;;;;1.40;0.67;;;6.80;99.90;;;;;;5094330;28;20415;-64
2022/11/04 06:31:03;;;;;;;1.27;0.60;;;6.90;99.90;;;;;;5094347;28;20457;-64
2022/11/04 06:33:30;;;;;;;1.40;0.70;;;6.90;99.90;;;;;;5093731;28;20177;-64
2022/11/04 06:35:57;;;;;;;1.50;0.73;;;6.90;99.90;;;;;;5093922;28;20875;-64
2022/11/04 06:38:23;;;;;;;1.20;0.50;;;6.90;99.90;;;;;;5093989;28;20415;-64
2022/11/04 06:40:48;;;;;;;2.60;0.70;;;6.90;99.90;;;;;;5090108;28;20836;-63
2022/11/04 06:43:14;;;;;;;2.03;0.60;;;6.90;99.90;;;;;;5063998;28;20232;-64
2022/11/04 06:45:39;;;;;;;1.83;0.70;;;6.90;99.90;;;;;;5058088;28;20186;-64
2022/11/04 06:48:05;;;;;;;1.27;0.70;;;6.90;99.90;;;;;;5053655;28;20717;-64
2022/11/04 06:50:31;;;;;;;2.07;1.00;;;7.00;99.90;;;;;;5062464;28;20203;-64
2022/11/04 06:52:56;;;;;;;1.20;0.60;;;7.00;99.90;;;;;;5082089;28;20186;-64
2022/11/04 06:55:22;;;;;;;1.50;0.60;;;7.00;99.90;;;;;;5092081;28;20638;-64
2022/11/04 06:57:48;;;;;;;2.17;0.60;;;7.00;99.90;;;;;;5059380;28;20186;-64
2022/11/04 07:00:13;;;;;;;1.40;0.80;;;7.00;99.90;;;;;;5072910;28;20184;-64
2022/11/04 07:02:39;;;;;;;1.20;0.50;;;7.10;99.90;;;;;;5072639;28;20185;-64
2022/11/04 07:05:06;;;;;;;1.63;0.70;;;7.10;99.90;;;;;;5072810;28;20177;-64
2022/11/04 07:07:31;;;;;;;1.40;0.60;;;7.20;99.90;;;;;;5070160;28;20210;-64
2022/11/04 07:09:57;;;;;;;2.07;1.00;;;7.20;99.90;;;;;;5052824;28;20440;-64
2022/11/04 07:12:23;;;;;;;2.57;1.20;;;7.30;99.90;;;;;;5057108;28;20590;-64
2022/11/04 07:14:54;;;;;;;1.40;0.70;;;7.30;99.90;;;;;;5069733;28;20189;-64
2022/11/04 07:17:20;;;;;;;2.00;0.80;;;7.30;99.90;;;;;;5071867;28;20411;-64
2022/11/04 07:19:45;;;;;;;2.07;0.83;;;7.40;99.90;;;;;;5060938;28;20807;-64
2022/11/04 07:22:11;;;;;;;8.70;0.87;;;7.40;99.90;;;;;;5092376;28;20204;-64
2022/11/04 07:24:36;;;;;;;1.97;1.10;;;7.40;99.90;;;;;;5092538;28;20180;-65
2022/11/04 07:27:02;;;;;;;3.30;1.03;;;7.40;99.90;;;;;;5092948;28;20219;-64
2022/11/04 07:29:27;;;;;;;1.93;0.90;;;7.40;99.90;;;;;;5092657;28;20176;-64
2022/11/04 07:31:53;;;;;;;2.70;1.20;;;7.40;99.90;;;;;;5092428;28;20279;-64
2022/11/04 07:34:19;;;;;;;2.23;0.90;;;7.40;99.90;;;;;;5092094;28;20183;-64
2022/11/04 07:36:44;;;;;;;25.13;1.17;;;7.40;99.90;;;;;;5092785;28;20192;-64
2022/11/04 07:39:10;;;;;;;1.43;0.77;;;7.40;99.90;;;;;;5074601;28;20195;-64
2022/11/04 07:41:36;;;;;;;2.47;1.30;;;7.40;99.90;;;;;;5081955;28;20310;-64
2022/11/04 07:44:04;;;;;;;4.80;1.00;;;7.50;99.90;;;;;;5071654;28;20226;-64
2022/11/04 07:46:33;;;;;;;1.70;0.70;;;7.50;99.90;;;;;;5072832;28;20181;-67
2022/11/04 07:48:58;;;;;;;1.20;0.60;;;7.60;99.90;;;;;;5073324;28;20907;-65
2022/11/04 07:51:25;;;;;;;1.30;0.60;;;7.70;99.90;;;;;;5057560;28;20464;-65
2022/11/04 07:53:51;;;;;;;2.50;0.70;;;7.70;99.90;;;;;;5050873;28;20615;-65
2022/11/04 07:56:18;;;;;;;1.83;0.70;;;7.80;99.90;;;;;;5051652;28;20420;-65
2022/11/04 07:58:44;;;;;;;1.40;0.60;;;7.80;99.90;;;;;;5051329;28;20177;-65
2022/11/04 08:01:13;;;;;;;1.57;0.93;;;7.80;99.90;;;;;;5051979;28;20412;-65
2022/11/04 08:03:38;;;;;;;2.27;0.90;;;7.90;99.90;;;;;;5050956;28;20806;-65
2022/11/04 08:06:06;;;;;;;1.47;0.60;;;7.90;99.90;;;;;;5052780;28;20408;-64
2022/11/04 08:08:32;;;;;;;2.97;0.87;;;8.00;99.90;;;;;;5037750;28;20272;-64
2022/11/04 08:11:01;;;;;;;4.60;1.27;;;8.00;99.90;;;;;;5042722;28;20467;-66
2022/11/04 08:13:28;;;;;;;3.40;1.27;;;8.10;99.90;;;;;;5072915;28;20432;-65
2022/11/04 08:15:55;;;;;;;1.80;1.00;;;8.20;99.90;;;;;;5052556;28;20458;-65
2022/11/04 08:18:20;;;;;;;4.00;1.07;;;8.20;99.90;;;;;;5043597;28;20424;-65
2022/11/04 08:20:48;;;;;;;3.83;1.53;;;8.30;99.90;;;;;;5076832;28;20512;-65
2022/11/04 08:23:15;;;;;;;4.57;2.27;;;8.40;99.90;;;;;;5047980;28;20189;-64
2022/11/04 08:25:40;;;;;;;8.57;2.03;;;8.40;99.90;;;;;;5046637;28;20482;-64
2022/11/04 08:28:06;;;;;;;3.00;1.37;;;8.50;99.90;;;;;;5068331;28;20447;-64
2022/11/04 08:30:32;;;;;;;3.30;1.13;;;8.50;99.90;;;;;;5067213;28;20280;-64
2022/11/04 08:32:58;;;;;;;4.80;1.83;;;8.50;99.90;;;;;;5055263;28;20186;-64
2022/11/04 08:35:24;;;;;;;2.20;0.87;;;8.60;99.90;;;;;;5066616;28;20475;-65
2022/11/04 08:37:50;;;;;;;2.60;1.10;;;8.70;99.90;;;;;;5071571;28;20415;-66
2022/11/04 08:40:15;;;;;;;2.23;0.70;;;8.80;99.90;;;;;;5070076;28;20467;-66
2022/11/04 08:42:41;;;;;;;2.70;0.87;;;8.80;99.90;;;;;;5065403;28;20650;-65
2022/11/04 08:45:07;;;;;;;2.17;1.00;;;8.90;99.90;;;;;;5066152;28;20650;-66
2022/11/04 08:47:33;;;;;;;2.80;0.97;;;8.90;99.90;;;;;;5056037;28;20196;-65
2022/11/04 08:49:58;;;;;;;3.10;1.70;;;9.00;99.90;;;;;;5070930;28;20518;-65
2022/11/04 08:52:24;;;;;;;8.43;1.40;;;9.00;99.90;;;;;;5066207;28;20204;-65
2022/11/04 08:54:54;;;;;;;2.03;0.90;;;9.00;99.90;;;;;;5070693;28;20197;-65
2022/11/04 08:57:19;;;;;;;4.30;1.40;;;9.10;99.90;;;;;;5071185;28;20636;-65
2022/11/04 08:59:45;;;;;;;2.37;0.60;;;9.10;99.90;;;;;;5067699;28;20447;-65
2022/11/04 09:02:16;;;;;;;1.40;0.60;;;9.10;99.90;;;;;;5071171;28;20195;-65
2022/11/04 09:04:42;;;;;;;1.20;0.53;;;9.20;99.90;;;;;;5068738;28;20193;-65
2022/11/04 09:07:08;;;;;;;2.67;0.80;;;9.20;99.90;;;;;;5069019;28;20807;-70
2022/11/04 09:09:33;;;;;;;2.73;0.60;;;9.40;99.90;;;;;;5067846;28;20499;-65
2022/11/04 09:11:59;;;;;;;1.70;0.80;;;9.30;99.90;;;;;;5069199;28;20208;-65
2022/11/04 09:14:24;;;;;;;1.60;0.60;;;9.30;99.90;;;;;;5068225;28;20207;-65
2022/11/04 09:16:50;;;;;;;1.30;0.60;;;9.30;99.90;;;;;;5071403;28;20169;-64
2022/11/04 09:19:16;;;;;;;1.50;0.70;;;9.20;99.90;;;;;;5058319;28;20227;-64
2022/11/04 09:21:41;;;;;;;2.33;0.80;;;9.30;99.90;;;;;;5066646;28;20208;-64
2022/11/04 09:24:07;;;;;;;4.00;1.30;;;9.30;99.90;;;;;;5068432;28;20204;-64
2022/11/04 09:26:33;;;;;;;1.87;0.70;;;9.30;99.90;;;;;;5053552;28;20660;-64
2022/11/04 09:28:59;;;;;;;2.07;0.67;;;9.40;99.90;;;;;;5052595;28;20454;-64
2022/11/04 09:31:27;;;;;;;2.77;0.67;;;9.40;99.90;;;;;;5056092;28;20463;-64
2022/11/04 09:33:54;;;;;;;1.50;0.67;;;9.40;99.90;;;;;;5073187;28;20185;-64
2022/11/04 09:36:20;;;;;;;1.53;0.73;;;9.50;99.90;;;;;;5072104;28;20411;-65
2022/11/04 09:38:46;;;;;;;1.20;0.50;;;9.50;99.90;;;;;;5092445;28;20665;-64
2022/11/04 09:41:27;;;;;;;1.30;0.50;;;9.60;99.90;;;;;;5082909;28;20549;-64
2022/11/04 09:44:26;;;;;;;2.10;0.90;;;9.70;99.90;;;;;;5075411;28;20196;-65
2022/11/04 09:46:57;;;;;;;1.30;0.70;;;9.80;99.90;;;;;;5059645;28;20420;-64
2022/11/04 09:49:25;;;;;;;4.13;0.80;;;9.90;99.90;;;;;;5084988;28;20415;-64
2022/11/04 09:51:53;;;;;;;3.83;0.73;;;9.90;99.90;;;;;;5095670;28;20454;-64
2022/11/04 09:54:43;;;;;;;1.73;0.70;;;9.90;99.90;;;;;;5098214;28;20465;-64
2022/11/04 09:57:16;;;;;;;2.83;0.90;;;9.90;99.90;;;;;;5098670;28;20403;-64
2022/11/04 09:59:42;;;;;;;1.40;0.60;;;10.00;99.90;;;;;;5080525;28;20883;-65
2022/11/04 10:02:10;;;;;;;5.37;0.70;;;10.10;99.90;;;;;;5076130;28;20415;-65
2022/11/04 10:04:45;;;;;;;3.00;1.03;;;10.20;99.90;;;;;;5074362;28;20185;-65
2022/11/04 10:07:32;;;;;;;1.93;0.90;;;10.20;99.90;;;;;;5073463;28;20453;-65
2022/11/04 10:10:08;;;;;;;5.77;0.87;;;10.20;99.90;;;;;;5072976;28;20435;-66
2022/11/04 10:12:46;;;;;;;1.60;0.60;;;10.20;99.90;;;;;;5072147;28;20438;-66
2022/11/04 10:15:33;;;;;;;1.70;0.90;;;10.20;99.90;;;;;;5071310;28;20526;-65
2022/11/04 10:18:33;;;;;;;1.40;0.60;;;10.30;99.90;;;;;;5066655;28;20427;-64
2022/11/04 10:21:33;;;;;;;3.93;0.80;;;10.40;99.90;;;;;;5068013;28;20469;-65
2022/11/04 10:24:48;;;;;;;3.77;0.90;;;10.40;99.90;;;;;;5070491;28;20431;-66
2022/11/04 10:27:25;;;;;;;5.10;1.23;;;10.40;99.90;;;;;;5072408;28;20569;-65
2022/11/04 10:30:05;;;;;;;1.87;0.90;;;10.40;99.90;;;;;;5070443;28;20438;-65
2022/11/04 10:32:46;;;;;;;4.80;0.83;;;10.50;99.90;;;;;;5071166;28;20465;-65
2022/11/04 10:35:33;;;;;;;4.63;1.20;;;10.50;99.90;;;;;;5071739;28;20799;-65
2022/11/04 10:38:20;;;;;;;1.40;0.70;;;10.50;99.90;;;;;;5057773;28;20915;-66
2022/11/04 10:40:49;;;;;;;1.67;0.70;;;10.50;99.90;;;;;;5063509;28;20538;-64
2022/11/04 10:43:23;;;;;;;2.67;1.20;;;10.50;99.90;;;;;;5067576;28;20440;-64
2022/11/04 10:46:14;;;;;;;3.00;0.90;;;10.50;99.90;;;;;;5069905;28;20438;-64
2022/11/04 10:48:47;;;;;;;10.10;0.90;;;10.60;99.90;;;;;;5071049;28;20489;-63
2022/11/04 10:51:19;;;;;;;5.13;0.90;;;10.60;99.90;;;;;;5071512;28;20466;-64
2022/11/04 10:53:44;;;;;;;3.60;1.30;;;10.60;99.90;;;;;;5068118;28;20449;-63
2022/11/04 10:56:38;;;;;;;1.60;0.70;;;10.50;99.90;;;;;;5050963;28;20439;-64
2022/11/04 10:59:23;;;;;;;5.80;0.97;;;10.50;99.90;;;;;;5064278;28;20182;-64
2022/11/04 11:01:54;;;;;;;1.67;0.87;;;10.50;99.90;;;;;;5071678;28;20803;-64
2022/11/04 11:04:25;;;;;;;3.80;1.20;;;10.50;99.90;;;;;;5072113;28;20419;-65
2022/11/04 11:06:53;;;;;;;2.33;0.93;;;10.60;99.90;;;;;;5071327;28;20467;-65
2022/11/04 11:09:24;;;;;;;4.10;0.90;;;10.60;99.90;;;;;;5066512;28;20526;-64
2022/11/04 11:11:51;;;;;;;4.33;1.17;;;10.70;99.90;;;;;;5060078;28;20616;-65
2022/11/04 11:14:31;;;;;;;2.97;0.80;;;10.90;99.90;;;;;;5070012;28;20450;-65
2022/11/04 11:17:16;;;;;;;3.60;1.27;;;10.80;99.90;;;;;;5070563;28;20416;-65
2022/11/04 11:19:53;;;;;;;4.10;0.90;;;10.70;99.90;;;;;;5064528;28;20488;-65
2022/11/04 11:22:36;;;;;;;2.17;0.97;;;10.60;99.90;;;;;;5064449;28;20518;-65
2022/11/04 11:25:19;;;;;;;1.50;1.00;;;10.60;99.90;;;;;;5072284;28;20412;-65
2022/11/04 11:27:48;;;;;;;1.30;0.47;;;10.60;99.90;;;;;;5071925;28;20484;-65
2022/11/04 11:30:22;;;;;;;2.00;0.90;;;10.50;99.90;;;;;;5069479;28;20452;-65
2022/11/04 11:32:54;;;;;;;3.17;0.90;;;10.60;99.90;;;;;;5061292;28;20433;-66
2022/11/04 11:35:26;;;;;;;1.67;0.60;;;10.70;99.90;;;;;;5077035;28;20415;-64
2022/11/04 11:37:52;;;;;;;1.50;0.87;;;10.80;99.90;;;;;;5054615;28;20431;-65
2022/11/04 11:40:36;;;;;;;2.23;1.00;;;10.80;99.90;;;;;;5065453;28;20783;-66
2022/11/04 11:43:04;;;;;;;2.87;1.33;;;10.90;99.90;;;;;;5048572;28;20506;-66
2022/11/04 11:45:31;;;;;;;5.30;1.60;;;10.90;99.90;;;;;;5066643;28;20428;-66
2022/11/04 11:47:56;;;;;;;2.17;1.00;;;11.00;99.90;;;;;;5066216;28;20431;-65
2022/11/04 11:50:33;;;;;;;2.70;1.13;;;11.10;99.90;;;;;;5066503;28;20514;-66
2022/11/04 11:53:23;;;;;;;4.07;0.70;;;11.10;99.90;;;;;;5067831;28;20179;-66
2022/11/04 11:56:16;;;;;;;9.17;1.10;;;11.30;99.90;;;;;;5071925;28;20447;-66
2022/11/04 11:58:48;;;;;;;2.53;1.00;;;11.30;99.90;;;;;;5060236;28;20420;-66
2022/11/04 12:01:38;;;;;;;3.20;1.50;;;11.20;99.90;;;;;;5071136;28;20455;-66
2022/11/04 12:04:03;;;;;;;2.43;0.77;;;11.20;99.90;;;;;;5052211;28;20422;-65
2022/11/04 12:07:13;;;;;;;2.97;1.10;;;11.20;99.90;;;;;;5066491;28;20544;-65
2022/11/04 12:09:57;;;;;;;1.90;0.60;;;11.20;99.90;;;;;;4951351;29;20189;-65
2022/11/04 12:13:11;;;;;;;3.53;1.13;;;11.20;99.90;;;;;;5066835;28;21251;-65
2022/11/04 12:15:36;;;;;;;4.80;0.67;;;11.20;99.90;;;;;;5043034;28;20447;-66
2022/11/04 12:18:12;;;;;;;1.90;0.63;;;11.30;99.90;;;;;;5058419;28;20467;-66
2022/11/04 12:20:49;;;;;;;4.13;0.83;;;11.40;99.90;;;;;;5062762;28;20180;-66
2022/11/04 12:23:27;;;;;;;5.47;1.33;;;11.50;99.90;;;;;;5062357;28;20441;-66
2022/11/04 12:26:12;;;;;;;1.80;0.73;;;11.50;99.90;;;;;;5065923;28;20466;-66
2022/11/04 12:28:44;;;;;;;2.20;1.20;;;11.60;99.90;;;;;;5062540;28;20446;-66
2022/11/04 12:31:28;;;;;;;4.00;1.00;;;11.90;99.90;;;;;;5069944;28;20880;-66
2022/11/04 12:34:22;;;;;;;2.50;0.60;;;12.00;99.90;;;;;;5063838;28;20474;-66
2022/11/04 12:37:09;;;;;;;5.63;1.93;;;12.20;99.90;;;;;;5068371;28;20435;-65
2022/11/04 12:39:40;;;;;;;3.00;1.40;;;12.30;99.90;;;;;;5068872;28;20426;-66
2022/11/04 12:42:34;;;;;;;3.30;1.37;;;12.40;99.90;;;;;;5068858;28;20476;-65
2022/11/04 12:45:23;;;;;;;5.70;1.13;;;12.40;99.90;;;;;;5062921;28;20533;-66
2022/11/04 12:47:49;;;;;;;2.37;0.63;;;12.20;99.90;;;;;;5065065;28;20991;-66
2022/11/04 12:50:33;;;;;;;1.40;0.70;;;12.10;99.90;;;;;;5069643;28;20439;-65
2022/11/04 12:53:13;;;;;;;3.77;1.43;;;12.00;99.90;;;;;;5059713;28;20234;-65
2022/11/04 12:56:06;;;;;;;2.83;1.00;;;12.00;99.90;;;;;;5067251;28;20411;-65
2022/11/04 12:58:41;;;;;;;2.80;1.37;;;12.00;99.90;;;;;;5068684;28;20434;-65
2022/11/04 13:01:24;;;;;;;2.10;1.00;;;12.00;99.90;;;;;;5065328;28;20503;-65
2022/11/04 13:04:00;;;;;;;2.17;0.90;;;12.10;99.90;;;;;;5070197;28;20412;-66
2022/11/04 13:06:33;;;;;;;1.90;0.90;;;12.30;99.90;;;;;;5069089;28;20442;-65
2022/11/04 13:09:07;;;;;;;1.70;0.80;;;12.10;99.90;;;;;;5070203;28;20828;-65
2022/11/04 13:11:43;;;;;;;2.53;0.97;;;12.10;99.90;;;;;;5066372;28;20908;-65
2022/11/04 13:14:15;;;;;;;2.70;0.63;;;12.20;99.90;;;;;;5070187;28;20822;-65
2022/11/04 13:16:43;;;;;;;1.20;0.50;;;12.00;99.90;;;;;;5074833;28;20388;-66
2022/11/04 13:19:34;;;;;;;1.57;0.63;;;12.10;99.90;;;;;;5061764;28;20485;-66
2022/11/04 13:22:20;;;;;;;1.73;0.63;;;12.20;99.90;;;;;;5058796;28;20789;-66
2022/11/04 13:25:05;;;;;;;1.80;0.60;;;12.40;99.90;;;;;;5073299;28;20447;-66
2022/11/04 13:27:36;;;;;;;1.30;0.50;;;12.30;99.90;;;;;;5067719;28;20411;-65
2022/11/04 13:30:24;;;;;;;1.77;0.70;;;12.20;99.90;;;;;;5073365;28;20411;-66
2022/11/04 13:33:21;;;;;;;1.20;0.50;;;12.10;99.90;;;;;;5074403;28;20415;-65
2022/11/04 13:35:52;;;;;;;1.50;0.60;;;12.10;99.90;;;;;;5073567;28;20516;-65
2022/11/04 13:38:57;;;;;;;2.57;0.87;;;12.30;99.90;;;;;;5082378;28;21123;-65
2022/11/04 13:41:38;;;;;;;1.40;0.60;;;12.50;99.90;;;;;;5074483;28;20462;-65
2022/11/04 13:44:17;;;;;;;5.00;0.90;;;12.70;99.90;;;;;;5071814;28;20943;-66
2022/11/04 13:46:49;;;;;;;1.30;0.60;;;12.80;99.90;;;;;;5074299;28;20459;-65
2022/11/04 13:49:18;;;;;;;2.67;0.80;;;12.90;99.90;;;;;;5067770;28;20438;-65